createdAt,value
2022-12-17T00:00:50.981Z,33.38
2022-12-17T00:03:37.762Z,30.85
2022-12-17T00:06:23.730Z,32.65
2022-12-17T00:09:09.213Z,29.45
2022-12-17T00:11:54.634Z,31.33
2022-12-17T00:14:41.846Z,29.00
2022-12-17T00:17:27.256Z,29.80
2022-12-17T00:20:12.574Z,31.50
2022-12-17T00:22:58.174Z,29.35
2022-12-17T00:25:44.668Z,28.45
2022-12-17T00:28:31.150Z,30.80
2022-12-17T00:31:16.778Z,30.27
2022-12-17T00:34:02.235Z,26.17
2022-12-17T00:36:47.700Z,27.50
2022-12-17T00:39:33.060Z,25.77
2022-12-17T00:42:18.594Z,24.95
2022-12-17T00:45:04.287Z,27.05
2022-12-17T00:47:49.813Z,25.30
2022-12-17T00:50:35.834Z,27.38
2022-12-17T00:53:21.473Z,24.85
2022-12-17T00:56:07.111Z,26.45
2022-12-17T00:58:52.798Z,23.85
2022-12-17T01:01:38.334Z,24.98
2022-12-17T01:04:23.796Z,24.08
2022-12-17T01:07:09.268Z,22.58
2022-12-17T01:09:55.199Z,23.17
2022-12-17T01:12:41.472Z,23.92
2022-12-17T01:15:27.007Z,23.13
2022-12-17T01:18:12.543Z,22.10
2022-12-17T01:20:57.860Z,22.38
2022-12-17T01:23:43.284Z,23.80
2022-12-17T01:26:28.700Z,20.95
2022-12-17T01:29:16.040Z,18.98
2022-12-17T01:32:01.499Z,19.00
2022-12-17T01:34:46.897Z,19.35
2022-12-17T01:37:32.310Z,18.90
2022-12-17T01:40:18.001Z,20.50
2022-12-17T01:43:04.776Z,21.05
2022-12-17T01:46:08.539Z,21.42
2022-12-17T01:48:59.230Z,21.37
2022-12-17T01:51:44.767Z,20.58
2022-12-17T01:54:30.749Z,21.70
2022-12-17T01:57:16.479Z,21.92
2022-12-17T02:00:23.052Z,20.52
2022-12-17T02:03:08.695Z,22.83
2022-12-17T02:06:02.331Z,21.73
2022-12-17T02:09:15.736Z,19.23
2022-12-17T02:12:13.854Z,16.92
2022-12-17T02:15:05.653Z,19.85
2022-12-17T02:18:04.212Z,20.77
2022-12-17T02:20:53.775Z,21.35
2022-12-17T02:24:01.877Z,19.27
2022-12-17T02:27:01.867Z,20.15
2022-12-17T02:29:50.647Z,20.00
2022-12-17T02:32:36.333Z,19.98
2022-12-17T02:35:23.390Z,23.27
2022-12-17T02:38:09.213Z,21.88
2022-12-17T02:40:57.595Z,22.52
2022-12-17T02:43:44.623Z,20.40
2022-12-17T02:46:30.187Z,23.05
2022-12-17T02:49:15.604Z,23.40
2022-12-17T02:52:01.783Z,20.25
2022-12-17T02:54:50.989Z,20.58
2022-12-17T02:57:39.984Z,19.52
2022-12-17T03:00:30.070Z,22.30
2022-12-17T03:03:15.627Z,20.05
2022-12-17T03:06:01.342Z,20.13
2022-12-17T03:08:46.766Z,19.13
2022-12-17T03:11:32.223Z,22.38
2022-12-17T03:14:17.871Z,23.33
2022-12-17T03:17:03.525Z,21.83
2022-12-17T03:19:51.597Z,21.52
2022-12-17T03:22:37.330Z,22.98
2022-12-17T03:25:25.594Z,20.50
2022-12-17T03:28:11.142Z,22.02
2022-12-17T03:30:56.979Z,24.25
2022-12-17T03:33:42.334Z,19.98
2022-12-17T03:36:28.167Z,21.75
2022-12-17T03:39:13.775Z,20.25
2022-12-17T03:41:59.604Z,22.92
2022-12-17T03:44:49.620Z,21.40
2022-12-17T03:47:35.354Z,21.58
2022-12-17T03:50:22.125Z,19.38
2022-12-17T03:53:16.008Z,21.52
2022-12-17T03:56:01.453Z,16.77
2022-12-17T03:58:50.502Z,19.65
2022-12-17T04:01:36.066Z,17.98
2022-12-17T04:04:21.696Z,21.08
2022-12-17T04:07:09.739Z,21.80
2022-12-17T04:10:08.321Z,18.80
2022-12-17T04:12:57.159Z,18.42
2022-12-17T04:15:52.204Z,20.15
2022-12-17T04:18:37.807Z,21.80
2022-12-17T04:21:24.423Z,20.52
2022-12-17T04:24:09.876Z,21.67
2022-12-17T04:27:01.454Z,21.90
2022-12-17T04:29:46.910Z,19.70
2022-12-17T04:32:35.875Z,21.60
2022-12-17T04:35:21.591Z,21.17
2022-12-17T04:38:14.695Z,23.50
2022-12-17T04:41:01.315Z,22.15
2022-12-17T04:43:46.723Z,21.95
2022-12-17T04:46:34.871Z,22.45
2022-12-17T04:49:20.314Z,23.60
2022-12-17T04:52:08.299Z,22.08
2022-12-17T04:54:53.946Z,22.27
2022-12-17T04:57:41.843Z,18.77
2022-12-17T05:00:27.892Z,20.80
2022-12-17T05:03:13.689Z,21.45
2022-12-17T05:06:00.292Z,21.55
2022-12-17T05:08:45.600Z,23.55
2022-12-17T05:11:31.259Z,25.15
2022-12-17T05:14:17.936Z,21.52
2022-12-17T05:17:04.504Z,28.80
2022-12-17T05:19:50.104Z,23.95
2022-12-17T05:22:35.574Z,22.75
2022-12-17T05:25:21.369Z,20.77
2022-12-17T05:28:06.895Z,24.33
2022-12-17T05:30:52.560Z,24.00
2022-12-17T05:33:38.496Z,21.60
2022-12-17T05:36:24.313Z,20.00
2022-12-17T05:39:09.746Z,24.95
2022-12-17T05:41:55.116Z,22.85
2022-12-17T05:44:43.029Z,26.13
2022-12-17T05:47:28.642Z,25.25
2022-12-17T05:50:14.362Z,23.92
2022-12-17T05:52:59.920Z,24.15
2022-12-17T05:55:45.489Z,26.45
2022-12-17T05:58:30.875Z,26.40
2022-12-17T06:01:19.017Z,27.77
2022-12-17T06:04:04.540Z,24.25
2022-12-17T06:06:51.021Z,24.92
2022-12-17T06:09:36.802Z,29.15
2022-12-17T06:12:22.245Z,25.88
2022-12-17T06:15:07.890Z,27.45
2022-12-17T06:17:53.267Z,24.80
2022-12-17T06:20:38.792Z,25.02
2022-12-17T06:23:34.321Z,28.55
2022-12-17T06:26:23.431Z,28.35
2022-12-17T06:29:11.324Z,25.20
2022-12-17T06:31:57.132Z,27.17
2022-12-17T06:34:42.604Z,27.63
2022-12-17T06:37:27.999Z,28.95
2022-12-17T06:40:19.461Z,28.70
2022-12-17T06:43:13.638Z,30.50
2022-12-17T06:45:59.036Z,29.35
2022-12-17T06:48:44.745Z,36.42
2022-12-17T06:51:30.500Z,31.38
2022-12-17T06:54:16.130Z,33.63
2022-12-17T06:57:01.679Z,36.08
2022-12-17T06:59:47.238Z,38.88
2022-12-17T07:02:46.703Z,32.17
2022-12-17T07:05:42.983Z,37.38
2022-12-17T07:08:28.742Z,39.00
2022-12-17T07:11:14.023Z,37.20
2022-12-17T07:13:59.649Z,38.58
2022-12-17T07:16:45.307Z,31.27
2022-12-17T07:19:30.806Z,33.60
2022-12-17T07:22:16.586Z,36.58
2022-12-17T07:25:01.995Z,33.92
2022-12-17T07:27:47.374Z,33.35
2022-12-17T07:30:33.193Z,35.03
2022-12-17T07:33:23.678Z,33.83
2022-12-17T07:36:10.995Z,32.67
2022-12-17T07:38:56.502Z,32.92
2022-12-17T07:41:41.822Z,33.47
2022-12-17T07:44:27.325Z,33.60
2022-12-17T07:47:29.569Z,34.53
2022-12-17T07:50:14.753Z,31.67
2022-12-17T07:53:00.351Z,31.98
2022-12-17T07:55:46.057Z,33.58
2022-12-17T07:58:31.783Z,31.20
2022-12-17T08:01:20.482Z,32.20
2022-12-17T08:04:05.899Z,33.35
2022-12-17T08:06:55.119Z,32.88
2022-12-17T08:09:43.929Z,29.85
2022-12-17T08:12:29.600Z,35.13
2022-12-17T08:15:15.193Z,34.05
2022-12-17T08:18:07.845Z,36.88
2022-12-17T08:20:54.553Z,34.85
2022-12-17T08:23:41.004Z,36.90
2022-12-17T08:26:26.503Z,39.55
2022-12-17T08:29:12.172Z,37.22
2022-12-17T08:31:57.776Z,47.25
2022-12-17T08:34:43.428Z,36.08
2022-12-17T08:37:36.360Z,38.25
2022-12-17T08:40:31.824Z,35.45
2022-12-17T08:43:17.419Z,33.47
2022-12-17T08:46:07.081Z,37.90
2022-12-17T08:48:54.408Z,35.67
2022-12-17T08:51:40.975Z,40.80
2022-12-17T08:54:26.549Z,34.15
2022-12-17T08:57:31.524Z,35.20
2022-12-17T09:00:18.073Z,34.65
2022-12-17T09:03:04.710Z,31.58
2022-12-17T09:06:00.446Z,39.17
2022-12-17T09:08:52.435Z,35.70
2022-12-17T09:11:39.069Z,34.33
2022-12-17T09:14:29.881Z,33.55
2022-12-17T09:17:20.849Z,37.60
2022-12-17T09:20:19.141Z,37.47
2022-12-17T09:23:07.350Z,33.58
2022-12-17T09:26:00.109Z,34.67
2022-12-17T09:28:48.853Z,37.08
2022-12-17T09:31:40.788Z,37.17
2022-12-17T09:34:26.314Z,34.95
2022-12-17T09:37:24.737Z,35.22
2022-12-17T09:40:12.953Z,31.92
2022-12-17T09:43:54.881Z,33.80
2022-12-17T09:46:29.972Z,33.53
2022-12-17T09:49:44.830Z,37.58
2022-12-17T09:52:43.931Z,31.73
2022-12-17T09:55:47.932Z,37.83
2022-12-17T09:58:44.033Z,37.88
2022-12-17T10:01:38.529Z,41.20
2022-12-17T10:04:26.526Z,41.13
2022-12-17T10:07:35.530Z,35.58
2022-12-17T10:11:34.565Z,42.95
2022-12-17T10:13:53.381Z,35.88
2022-12-17T10:16:44.942Z,37.30
2022-12-17T10:19:54.377Z,42.53
2022-12-17T10:22:39.936Z,38.97
2022-12-17T10:25:36.047Z,43.17
2022-12-17T10:28:25.364Z,42.83
2022-12-17T10:31:10.979Z,43.35
2022-12-17T10:33:57.406Z,43.25
2022-12-17T10:36:43.193Z,42.88
2022-12-17T10:39:37.243Z,43.05
2022-12-17T10:42:22.955Z,39.55
2022-12-17T10:45:08.321Z,40.72
2022-12-17T10:47:54.020Z,38.03
2022-12-17T10:50:42.060Z,37.50
2022-12-17T10:53:40.703Z,37.47
2022-12-17T10:56:26.153Z,36.58
2022-12-17T10:59:12.306Z,36.72
2022-12-17T11:02:00.776Z,35.75
2022-12-17T11:04:47.995Z,41.75
2022-12-17T11:07:36.536Z,40.60
2022-12-17T11:10:22.652Z,36.08
2022-12-17T11:13:10.658Z,35.00
2022-12-17T11:16:04.299Z,33.95
2022-12-17T11:18:55.934Z,36.95
2022-12-17T11:22:12.200Z,36.85
2022-12-17T11:25:22.263Z,36.75
2022-12-17T11:28:17.367Z,41.00
2022-12-17T11:31:07.819Z,36.55
2022-12-17T11:34:09.971Z,33.55
2022-12-17T11:37:04.003Z,40.47
2022-12-17T11:40:17.741Z,35.33
2022-12-17T11:43:09.628Z,33.90
2022-12-17T11:46:16.373Z,36.70
2022-12-17T11:49:04.708Z,36.67
2022-12-17T11:52:32.346Z,39.60
2022-12-17T11:55:30.166Z,39.30
2022-12-17T11:58:19.892Z,41.72
2022-12-17T12:01:20.761Z,42.17
2022-12-17T12:04:13.852Z,37.88
2022-12-17T12:07:18.701Z,39.97
2022-12-17T12:10:07.006Z,39.80
2022-12-17T12:13:02.523Z,37.15
2022-12-17T12:16:07.674Z,37.63
2022-12-17T12:19:05.383Z,42.35
2022-12-17T12:22:10.265Z,35.97
2022-12-17T12:25:09.666Z,37.63
2022-12-17T12:28:06.749Z,42.38
2022-12-17T12:31:00.673Z,39.10
2022-12-17T12:34:14.120Z,39.00
2022-12-17T12:36:59.455Z,44.78
2022-12-17T12:39:53.207Z,41.88
2022-12-17T12:42:44.025Z,45.15
2022-12-17T12:45:48.232Z,45.33
2022-12-17T12:48:40.052Z,43.45
2022-12-17T12:51:42.899Z,39.35
2022-12-17T12:54:40.731Z,35.95
2022-12-17T12:58:11.104Z,36.40
2022-12-17T13:00:58.280Z,35.05
2022-12-17T13:03:45.763Z,34.15
2022-12-17T13:06:14.069Z,32.50
2022-12-17T13:08:41.280Z,37.67
2022-12-17T13:11:28.748Z,37.22
2022-12-17T13:13:57.685Z,32.33
2022-12-17T13:16:48.806Z,33.08
2022-12-17T13:19:31.385Z,30.30
2022-12-17T13:22:21.664Z,37.20
2022-12-17T13:24:52.509Z,36.15
2022-12-17T13:27:34.122Z,36.00
2022-12-17T13:30:19.030Z,35.88
2022-12-17T13:33:16.285Z,31.42
2022-12-17T13:36:09.306Z,28.65
2022-12-17T13:38:39.383Z,31.00
2022-12-17T13:41:10.837Z,28.92
2022-12-17T13:43:54.176Z,28.17
2022-12-17T13:46:47.278Z,31.97
2022-12-17T13:49:18.485Z,30.38
2022-12-17T13:51:45.790Z,29.20
2022-12-17T13:54:16.314Z,27.60
2022-12-17T13:56:43.288Z,28.35
2022-12-17T13:59:22.210Z,24.60
2022-12-17T14:01:51.084Z,24.20
2022-12-17T14:04:22.097Z,21.08
2022-12-17T14:06:49.083Z,24.65
2022-12-17T14:12:38.524Z,24.85
2022-12-17T14:15:27.207Z,27.33
2022-12-17T14:17:59.048Z,22.55
2022-12-17T14:20:41.403Z,24.27
2022-12-17T14:23:30.470Z,23.92
2022-12-17T14:26:01.065Z,29.38
2022-12-17T14:28:38.092Z,22.20
2022-12-17T14:31:27.483Z,23.77
2022-12-17T14:34:02.294Z,20.33
2022-12-17T14:36:29.400Z,23.83
2022-12-17T14:39:03.690Z,23.67
2022-12-17T14:41:54.552Z,19.13
2022-12-17T14:44:24.123Z,20.42
2022-12-17T14:46:51.950Z,19.25
2022-12-17T14:49:20.305Z,19.30
2022-12-17T14:51:47.345Z,19.58
2022-12-17T14:54:14.343Z,21.60
2022-12-17T14:56:41.803Z,18.42
2022-12-17T14:59:24.736Z,18.73
2022-12-17T15:01:56.451Z,22.95
2022-12-17T15:04:23.732Z,20.75
2022-12-17T15:06:50.769Z,21.45
2022-12-17T15:09:17.685Z,20.88
2022-12-17T15:11:44.560Z,22.85
2022-12-17T15:14:11.365Z,22.13
2022-12-17T15:16:38.338Z,21.83
2022-12-17T15:19:05.265Z,20.90
2022-12-17T15:21:33.641Z,19.90
2022-12-17T15:24:00.559Z,19.58
2022-12-17T15:26:27.469Z,18.98
2022-12-17T15:28:54.770Z,18.55
2022-12-17T15:31:25.007Z,26.80
2022-12-17T15:33:53.700Z,17.35
2022-12-17T15:36:20.558Z,19.63
2022-12-17T15:38:47.707Z,18.42
2022-12-17T15:41:33.837Z,20.30
2022-12-17T15:44:00.803Z,18.38
2022-12-17T15:46:30.043Z,17.75
2022-12-17T15:48:57.200Z,18.90
2022-12-17T15:51:24.117Z,20.55
2022-12-17T15:53:51.107Z,22.83
2022-12-17T15:56:23.410Z,21.20
2022-12-17T15:58:50.473Z,21.45
2022-12-17T16:01:17.781Z,20.35
2022-12-17T16:03:44.865Z,21.90
2022-12-17T16:06:11.921Z,17.63
2022-12-17T16:08:39.633Z,18.70
2022-12-17T16:11:13.999Z,20.92
2022-12-17T16:13:41.044Z,21.65
2022-12-17T16:16:08.987Z,20.15
2022-12-17T16:18:39.223Z,21.27
2022-12-17T16:21:10.104Z,20.35
2022-12-17T16:23:37.149Z,22.15
2022-12-17T16:26:08.057Z,23.00
2022-12-17T16:28:35.798Z,22.20
2022-12-17T16:31:08.106Z,22.75
2022-12-17T16:33:37.008Z,23.15
2022-12-17T16:36:04.652Z,29.77
2022-12-17T16:38:31.866Z,24.90
2022-12-17T16:41:01.312Z,24.13
2022-12-17T16:43:30.487Z,22.95
2022-12-17T16:45:57.652Z,28.27
2022-12-17T16:48:24.739Z,22.13
2022-12-17T16:50:51.708Z,24.27
2022-12-17T16:53:21.427Z,24.35
2022-12-17T16:55:49.648Z,23.70
2022-12-17T16:58:17.292Z,24.55
2022-12-17T17:00:45.323Z,24.05
2022-12-17T17:03:12.560Z,24.55
2022-12-17T17:05:39.976Z,28.10
2022-12-17T17:08:07.062Z,26.13
2022-12-17T17:10:35.645Z,25.73
2022-12-17T17:13:02.753Z,25.77
2022-12-17T17:15:29.621Z,28.30
2022-12-17T17:18:01.954Z,26.38
2022-12-17T17:20:32.613Z,30.33
2022-12-17T17:22:59.920Z,32.60
2022-12-17T17:25:38.833Z,41.33
2022-12-17T17:28:14.152Z,36.85
2022-12-17T17:30:41.081Z,38.95
2022-12-17T17:33:07.942Z,37.60
2022-12-17T17:35:34.940Z,37.10
2022-12-17T17:38:01.803Z,32.55
2022-12-17T17:40:28.747Z,35.38
2022-12-17T17:42:55.644Z,32.97
2022-12-17T17:45:22.589Z,32.08
2022-12-17T17:47:49.444Z,31.80
2022-12-17T17:50:16.500Z,31.85
2022-12-17T17:52:43.379Z,30.65
2022-12-17T17:55:10.291Z,27.42
2022-12-17T17:57:37.179Z,30.90
2022-12-17T18:00:04.594Z,30.23
2022-12-17T18:02:32.409Z,25.67
2022-12-17T18:04:59.461Z,28.40
2022-12-17T18:07:27.160Z,26.20
2022-12-17T18:09:54.963Z,26.15
2022-12-17T18:12:40.369Z,23.55
2022-12-17T18:15:17.716Z,25.08
2022-12-17T18:17:50.211Z,23.48
2022-12-17T18:20:17.226Z,22.73
2022-12-17T18:22:46.354Z,22.67
2022-12-17T18:25:14.451Z,26.77
2022-12-17T18:27:41.376Z,25.58
2022-12-17T18:30:08.961Z,23.65
2022-12-17T18:32:36.079Z,24.02
2022-12-17T18:35:02.965Z,21.95
2022-12-17T18:37:29.851Z,23.75
2022-12-17T18:39:56.797Z,24.08
2022-12-17T18:42:42.170Z,24.73
2022-12-17T18:45:09.401Z,20.15
2022-12-17T18:47:36.252Z,23.58
2022-12-17T18:50:03.256Z,21.17
2022-12-17T18:52:30.148Z,25.73
2022-12-17T18:54:57.107Z,22.50
2022-12-17T18:57:24.140Z,20.92
2022-12-17T18:59:51.020Z,21.48
2022-12-17T19:02:18.137Z,18.33
2022-12-17T19:04:45.108Z,20.20
2022-12-17T19:07:12.000Z,21.23
2022-12-17T19:09:40.528Z,17.85
2022-12-17T19:12:08.365Z,20.48
2022-12-17T19:14:35.523Z,21.90
2022-12-17T19:17:02.616Z,21.27
2022-12-17T19:19:29.621Z,19.88
2022-12-17T19:21:56.582Z,20.27
2022-12-17T19:24:23.642Z,19.05
2022-12-17T19:26:50.722Z,21.35
2022-12-17T19:29:17.990Z,19.65
2022-12-17T19:31:45.903Z,18.15
2022-12-17T19:34:14.056Z,18.85
2022-12-17T19:36:41.013Z,19.98
2022-12-17T19:39:08.884Z,16.95
2022-12-17T19:41:35.757Z,18.13
2022-12-17T19:44:04.567Z,20.35
2022-12-17T19:46:32.060Z,18.55
2022-12-17T19:48:59.023Z,19.65
2022-12-17T19:51:28.343Z,18.42
2022-12-17T19:53:55.350Z,19.65
2022-12-17T19:56:26.558Z,21.42
2022-12-17T19:58:55.976Z,18.90
2022-12-17T20:01:28.104Z,19.52
2022-12-17T20:03:55.257Z,20.15
2022-12-17T20:06:24.116Z,20.85
2022-12-17T20:08:51.013Z,21.35
2022-12-17T20:11:36.227Z,20.85
2022-12-17T20:14:09.400Z,21.73
2022-12-17T20:16:38.246Z,23.38
2022-12-17T20:19:08.229Z,21.33
2022-12-17T20:21:35.130Z,21.35
2022-12-17T20:24:02.183Z,21.13
2022-12-17T20:26:29.038Z,17.15
2022-12-17T20:28:56.036Z,18.80
2022-12-17T20:31:23.057Z,20.15
2022-12-17T20:33:50.004Z,19.67
2022-12-17T20:36:18.753Z,17.27
2022-12-17T20:38:45.749Z,17.73
2022-12-17T20:41:19.886Z,16.85
2022-12-17T20:43:47.071Z,18.83
2022-12-17T20:46:14.231Z,20.23
2022-12-17T20:48:42.117Z,22.50
2022-12-17T20:51:13.281Z,21.73
2022-12-17T20:53:40.327Z,24.55
2022-12-17T20:56:09.174Z,24.02
2022-12-17T20:58:36.652Z,24.00
2022-12-17T21:01:09.269Z,24.38
2022-12-17T21:03:36.277Z,32.13
2022-12-17T21:06:11.093Z,34.60
2022-12-17T21:08:39.268Z,41.83
2022-12-17T21:11:08.509Z,47.97
2022-12-17T21:13:35.550Z,48.65
2022-12-17T21:16:07.132Z,47.03
2022-12-17T21:18:34.174Z,47.83
2022-12-17T21:21:09.041Z,44.58
2022-12-17T21:23:36.218Z,46.80
2022-12-17T21:26:13.970Z,50.25
2022-12-17T21:28:42.458Z,43.72
2022-12-17T21:31:31.575Z,43.05
2022-12-17T21:34:00.639Z,41.35
2022-12-17T21:36:28.749Z,38.70
2022-12-17T21:38:55.853Z,40.20
2022-12-17T21:41:26.805Z,43.72
2022-12-17T21:43:58.811Z,41.28
2022-12-17T21:46:29.149Z,39.10
2022-12-17T21:48:57.208Z,42.47
2022-12-17T21:51:24.166Z,39.33
2022-12-17T21:53:59.020Z,36.30
2022-12-17T21:56:26.308Z,36.67
2022-12-17T21:59:00.168Z,34.47
2022-12-17T22:03:56.777Z,30.08
2022-12-17T22:06:25.960Z,28.95
2022-12-17T22:09:00.176Z,28.15
2022-12-17T22:11:36.507Z,24.02
2022-12-17T22:14:08.618Z,26.50
2022-12-17T22:16:42.484Z,25.50
2022-12-17T22:19:10.525Z,29.60
2022-12-17T22:21:39.283Z,29.08
2022-12-17T22:24:06.689Z,31.17
2022-12-17T22:26:36.348Z,30.77
2022-12-17T22:29:03.487Z,28.83
2022-12-17T22:32:05.706Z,28.92
2022-12-17T22:35:31.277Z,27.88
2022-12-17T22:42:17.664Z,33.30
2022-12-17T22:44:17.219Z,27.48
2022-12-17T22:44:49.041Z,35.05
2022-12-17T22:46:03.991Z,27.58
2022-12-17T22:48:31.878Z,29.35
2022-12-17T22:51:05.833Z,31.65
2022-12-17T22:53:37.368Z,31.08
2022-12-17T22:56:18.521Z,35.72
2022-12-17T22:58:53.399Z,32.15
2022-12-17T23:01:23.178Z,32.70
2022-12-17T23:03:54.125Z,34.60
2022-12-17T23:06:21.270Z,28.50
2022-12-17T23:08:48.132Z,31.65
2022-12-17T23:11:17.427Z,32.13
2022-12-17T23:13:44.320Z,30.92
2022-12-17T23:16:13.350Z,32.33
2022-12-17T23:18:41.256Z,31.23
2022-12-17T23:21:10.958Z,35.97
2022-12-17T23:23:38.437Z,32.35
2022-12-17T23:26:14.205Z,28.80
2022-12-17T23:28:41.373Z,31.13
2022-12-17T23:31:10.137Z,34.65
2022-12-17T23:33:37.625Z,29.60
2022-12-17T23:36:06.595Z,38.05
2022-12-17T23:38:33.785Z,36.75
2022-12-17T23:41:10.853Z,31.73
2022-12-17T23:43:38.313Z,31.25
2022-12-17T23:46:05.586Z,30.83
2022-12-17T23:48:34.028Z,33.03
2022-12-17T23:51:01.023Z,31.65
2022-12-17T23:53:28.750Z,29.13
2022-12-17T23:55:55.716Z,28.80
2022-12-17T23:58:22.822Z,29.48
